Jrs Merkur — V2FD8 — position and weather

sailwx.info

Track history (hours):
 
Tides and Currents Weather Stations Pressure Air Temp Water Temp Dewpoint Dewpoint Depression Visibility Wind Speed Wind Dir Waves Ship Positions

Jrs Merkur

Last reported at 2014-Aug-16 16:05 UTC. Time now 2014-Aug-31 10:35 UTC.
Position N 46°30' W 002°33'.
Warning: this ship's position is 14 days out of date.

Length 107 m; draft 5.1 m.

Type: Cargo ship. MMSI: 305644000.

Date/timePositionNaut miles runAvg speedWind from/ knotsBaromVisibWave heightAir tempDewpointWater temp
2014-Aug-16 16:05N 46°30' W 002°33'610.1
2014-Aug-16 15:31N 46°27' W 002°26'1010.0
2014-Aug-16 14:33N 46°22' W 002°14'1010.3
2014-Aug-16 13:33N 46°16' W 002°02'1010.4
2014-Aug-16 12:33N 46°10' W 001°49'1110.8
2014-Aug-16 11:33N 46°08' W 001°34'  
2014-Aug-11 04:28N 46°08' W 001°46'  
2014-Aug-07 21:21N 36°59' W 009°21'16 8.3
2014-Aug-07 19:26N 36°45' W 009°10'11 8.5
2014-Aug-07 18:10N 36°42' W 008°57'6 8.7
2014-Aug-07 17:27N 36°40' W 008°50'8 8.7
2014-Aug-07 16:33N 36°37' W 008°41'166 8.8
2014-Aug-06 21:33N 35°57' W 005°20'3 3.2
2014-Aug-06 20:31N 35°54' W 005°19'0 0.0
2014-Aug-06 19:31N 35°54' W 005°19'0 0.0
2014-Aug-06 18:31N 35°54' W 005°19'0 0.0
2014-Aug-06 17:31N 35°54' W 005°19'0 0.0
2014-Aug-06 16:31N 35°54' W 005°19'  
Track history (hours):
 
Tides and Currents Weather Stations Pressure Air Temp Water Temp Dewpoint Dewpoint Depression Visibility Wind Speed Wind Dir Waves Ship Positions

Jrs Merkur

Last reported at 2014-Aug-16 16:05 UTC. Time now 2014-Aug-31 10:35 UTC.
Position N 46°30' W 002°33'.
Warning: this ship's position is 14 days out of date.

Length 107 m; draft 5.1 m.

Type: Cargo ship. MMSI: 305644000.

Date/timePositionNaut miles runAvg speedWind from/ knotsBaromVisibWave heightAir tempDewpointWater temp
2014-Aug-16 16:05N 46°30' W 002°33'610.1
2014-Aug-16 15:31N 46°27' W 002°26'1010.0
2014-Aug-16 14:33N 46°22' W 002°14'1010.3
2014-Aug-16 13:33N 46°16' W 002°02'1010.4
2014-Aug-16 12:33N 46°10' W 001°49'1110.8
2014-Aug-16 11:33N 46°08' W 001°34'  
2014-Aug-11 04:28N 46°08' W 001°46'  
2014-Aug-07 21:21N 36°59' W 009°21'16 8.3
2014-Aug-07 19:26N 36°45' W 009°10'11 8.5
2014-Aug-07 18:10N 36°42' W 008°57'6 8.7
2014-Aug-07 17:27N 36°40' W 008°50'8 8.7
2014-Aug-07 16:33N 36°37' W 008°41'166 8.8
2014-Aug-06 21:33N 35°57' W 005°20'3 3.2
2014-Aug-06 20:31N 35°54' W 005°19'0 0.0
2014-Aug-06 19:31N 35°54' W 005°19'0 0.0
2014-Aug-06 18:31N 35°54' W 005°19'0 0.0
2014-Aug-06 17:31N 35°54' W 005°19'0 0.0
2014-Aug-06 16:31N 35°54' W 005°19'  

Dump ship's entire track history